sensor_id;sensor_type;location;lat;lon;timestamp;pressure;altitude;pressure_sealevel;temperature;humidity
29385;BME280;16367;48.736;9.218;2023-06-10T00:00:42;-23759.97;;;18.79;68.99
29385;BME280;16367;48.736;9.218;2023-06-10T00:02:45;-23761.22;;;18.83;68.87
29385;BME280;16367;48.736;9.218;2023-06-10T00:04:48;-23759.97;;;18.79;69.13
29385;BME280;16367;48.736;9.218;2023-06-10T00:06:51;-23756.34;;;18.67;70.35
29385;BME280;16367;48.736;9.218;2023-06-10T00:08:55;-23756.97;;;18.69;70.04
29385;BME280;16367;48.736;9.218;2023-06-10T00:10:59;-23761.53;;;18.84;68.94
29385;BME280;16367;48.736;9.218;2023-06-10T00:13:02;-23761.69;;;18.84;69.03
29385;BME280;16367;48.736;9.218;2023-06-10T00:15:06;-23757.13;;;18.70;70.36
29385;BME280;16367;48.736;9.218;2023-06-10T00:17:10;-23757.28;;;18.70;70.01
29385;BME280;16367;48.736;9.218;2023-06-10T00:19:13;-23755.88;;;18.66;70.47
29385;BME280;16367;48.736;9.218;2023-06-10T00:21:16;-23756.34;;;18.67;70.24
29385;BME280;16367;48.736;9.218;2023-06-10T00:23:21;-23758.72;;;18.75;70.37
29385;BME280;16367;48.736;9.218;2023-06-10T00:25:24;-23755.25;;;18.64;70.79
29385;BME280;16367;48.736;9.218;2023-06-10T00:27:28;-23755.25;;;18.64;70.85
29385;BME280;16367;48.736;9.218;2023-06-10T00:29:36;-23755.41;;;18.64;70.75
29385;BME280;16367;48.736;9.218;2023-06-10T00:31:40;-23757.13;;;18.70;70.41
29385;BME280;16367;48.736;9.218;2023-06-10T00:33:43;-23758.88;;;18.75;70.13
29385;BME280;16367;48.736;9.218;2023-06-10T00:35:46;-23757.91;;;18.72;70.51
29385;BME280;16367;48.736;9.218;2023-06-10T00:37:49;-23753.38;;;18.57;71.43
29385;BME280;16367;48.736;9.218;2023-06-10T00:39:52;-23759.34;;;18.77;70.53
29385;BME280;16367;48.736;9.218;2023-06-10T00:41:54;-23756.19;;;18.67;71.04
29385;BME280;16367;48.736;9.218;2023-06-10T00:43:59;-23753.50;;;18.58;71.48
29385;BME280;16367;48.736;9.218;2023-06-10T00:46:01;-23754.00;;;18.59;71.43
29385;BME280;16367;48.736;9.218;2023-06-10T00:48:05;-23754.94;;;18.63;71.08
29385;BME280;16367;48.736;9.218;2023-06-10T00:50:08;-23752.09;;;18.53;72.07
29385;BME280;16367;48.736;9.218;2023-06-10T00:52:11;-23745.50;;;18.32;72.96
29385;BME280;16367;48.736;9.218;2023-06-10T00:54:14;-23748.16;;;18.41;72.25
29385;BME280;16367;48.736;9.218;2023-06-10T00:56:17;-23750.38;;;18.48;72.50
29385;BME280;16367;48.736;9.218;2023-06-10T00:58:20;-23747.22;;;18.38;72.94
29385;BME280;16367;48.736;9.218;2023-06-10T01:00:25;-23746.91;;;18.37;72.99
29385;BME280;16367;48.736;9.218;2023-06-10T01:02:29;-23748.31;;;18.41;73.32
29385;BME280;16367;48.736;9.218;2023-06-10T01:04:32;-23745.97;;;18.34;73.48
29385;BME280;16367;48.736;9.218;2023-06-10T01:06:39;-23744.88;;;18.30;73.91
29385;BME280;16367;48.736;9.218;2023-06-10T01:08:53;-23745.81;;;18.33;73.66
29385;BME280;16367;48.736;9.218;2023-06-10T01:11:00;-23743.91;;;18.27;74.08
29385;BME280;16367;48.736;9.218;2023-06-10T01:13:07;-23744.56;;;18.29;74.21
29385;BME280;16367;48.736;9.218;2023-06-10T01:15:13;-23746.44;;;18.35;73.98
29385;BME280;16367;48.736;9.218;2023-06-10T01:17:17;-23743.91;;;18.27;74.39
29385;BME280;16367;48.736;9.218;2023-06-10T01:19:20;-23741.25;;;18.19;75.30
29385;BME280;16367;48.736;9.218;2023-06-10T01:21:27;-23745.81;;;18.33;74.36
29385;BME280;16367;48.736;9.218;2023-06-10T01:23:29;-23746.44;;;18.35;74.37
29385;BME280;16367;48.736;9.218;2023-06-10T01:25:34;-23746.13;;;18.34;74.32
29385;BME280;16367;48.736;9.218;2023-06-10T01:27:38;-23744.25;;;18.28;74.64
29385;BME280;16367;48.736;9.218;2023-06-10T01:29:45;-23742.66;;;18.23;75.20
29385;BME280;16367;48.736;9.218;2023-06-10T01:31:54;-23741.09;;;18.18;75.46
29385;BME280;16367;48.736;9.218;2023-06-10T01:34:03;-23744.25;;;18.28;75.00
29385;BME280;16367;48.736;9.218;2023-06-10T01:36:10;-23743.28;;;18.25;75.23
29385;BME280;16367;48.736;9.218;2023-06-10T01:38:17;-23738.09;;;18.09;76.04
29385;BME280;16367;48.736;9.218;2023-06-10T01:40:21;-23737.94;;;18.08;76.29
29385;BME280;16367;48.736;9.218;2023-06-10T01:42:25;-23738.91;;;18.11;76.02
29385;BME280;16367;48.736;9.218;2023-06-10T01:44:29;-23734.50;;;17.97;76.83
29385;BME280;16367;48.736;9.218;2023-06-10T01:46:31;-23734.19;;;17.96;76.71
29385;BME280;16367;48.736;9.218;2023-06-10T01:48:34;-23733.06;;;17.93;77.00
29385;BME280;16367;48.736;9.218;2023-06-10T01:50:37;-23732.28;;;17.90;77.39
29385;BME280;16367;48.736;9.218;2023-06-10T01:52:40;-23736.69;;;18.04;76.47
29385;BME280;16367;48.736;9.218;2023-06-10T01:54:44;-23739.06;;;18.12;75.84
29385;BME280;16367;48.736;9.218;2023-06-10T01:56:46;-23741.09;;;18.18;75.46
29385;BME280;16367;48.736;9.218;2023-06-10T01:58:49;-23734.66;;;17.98;77.10
29385;BME280;16367;48.736;9.218;2023-06-10T02:00:52;-23732.59;;;17.91;77.43
29385;BME280;16367;48.736;9.218;2023-06-10T02:02:55;-23729.78;;;17.82;77.78
29385;BME280;16367;48.736;9.218;2023-06-10T02:04:57;-23728.19;;;17.77;78.50
29385;BME280;16367;48.736;9.218;2023-06-10T02:07:00;-23726.78;;;17.72;78.82
29385;BME280;16367;48.736;9.218;2023-06-10T02:09:05;-23721.91;;;17.57;79.62
29385;BME280;16367;48.736;9.218;2023-06-10T02:11:09;-23720.66;;;17.53;79.63
29385;BME280;16367;48.736;9.218;2023-06-10T02:13:12;-23724.72;;;17.66;79.18
29385;BME280;16367;48.736;9.218;2023-06-10T02:15:15;-23720.34;;;17.52;79.62
29385;BME280;16367;48.736;9.218;2023-06-10T02:17:17;-23721.59;;;17.56;79.72
29385;BME280;16367;48.736;9.218;2023-06-10T02:19:21;-23720.00;;;17.51;79.74
29385;BME280;16367;48.736;9.218;2023-06-10T02:21:23;-23718.59;;;17.46;80.06
29385;BME280;16367;48.736;9.218;2023-06-10T02:23:26;-23715.75;;;17.37;80.96
29385;BME280;16367;48.736;9.218;2023-06-10T02:25:29;-23716.41;;;17.39;80.34
29385;BME280;16367;48.736;9.218;2023-06-10T02:27:33;-23715.13;;;17.35;80.76
29385;BME280;16367;48.736;9.218;2023-06-10T02:29:36;-23718.44;;;17.46;80.78
29385;BME280;16367;48.736;9.218;2023-06-10T02:31:39;-23720.50;;;17.52;79.44
29385;BME280;16367;48.736;9.218;2023-06-10T02:33:42;-23717.19;;;17.42;80.65
29385;BME280;16367;48.736;9.218;2023-06-10T02:35:46;-23715.59;;;17.37;81.04
29385;BME280;16367;48.736;9.218;2023-06-10T02:37:48;-23714.66;;;17.34;81.27
29385;BME280;16367;48.736;9.218;2023-06-10T02:39:51;-23714.03;;;17.32;80.91
29385;BME280;16367;48.736;9.218;2023-06-10T02:41:54;-23713.88;;;17.31;80.98
29385;BME280;16367;48.736;9.218;2023-06-10T02:43:58;-23710.88;;;17.22;81.62
29385;BME280;16367;48.736;9.218;2023-06-10T02:46:01;-23714.50;;;17.33;81.12
29385;BME280;16367;48.736;9.218;2023-06-10T02:48:04;-23712.94;;;17.28;81.61
29385;BME280;16367;48.736;9.218;2023-06-10T02:50:08;-23712.47;;;17.27;81.58
29385;BME280;16367;48.736;9.218;2023-06-10T02:52:11;-23707.09;;;17.09;83.31
29385;BME280;16367;48.736;9.218;2023-06-10T02:54:13;-23709.63;;;17.17;82.79
29385;BME280;16367;48.736;9.218;2023-06-10T02:56:18;-23704.59;;;17.01;83.64
29385;BME280;16367;48.736;9.218;2023-06-10T02:58:21;-23706.63;;;17.08;83.44
29385;BME280;16367;48.736;9.218;2023-06-10T03:00:25;-23705.22;;;17.03;83.80
29385;BME280;16367;48.736;9.218;2023-06-10T03:02:28;-23707.41;;;17.10;83.90
29385;BME280;16367;48.736;9.218;2023-06-10T03:04:33;-23703.81;;;16.99;84.46
29385;BME280;16367;48.736;9.218;2023-06-10T03:06:36;-23701.59;;;16.92;84.67
29385;BME280;16367;48.736;9.218;2023-06-10T03:08:40;-23704.28;;;17.00;83.86
29385;BME280;16367;48.736;9.218;2023-06-10T03:10:42;-23706.47;;;17.07;84.08
29385;BME280;16367;48.736;9.218;2023-06-10T03:12:45;-23706.47;;;17.07;83.59
29385;BME280;16367;48.736;9.218;2023-06-10T03:14:48;-23703.00;;;16.96;84.84
29385;BME280;16367;48.736;9.218;2023-06-10T03:16:52;-23702.69;;;16.95;85.65
29385;BME280;16367;48.736;9.218;2023-06-10T03:18:55;-23699.06;;;16.84;86.06
29385;BME280;16367;48.736;9.218;2023-06-10T03:20:58;-23698.91;;;16.83;86.38
29385;BME280;16367;48.736;9.218;2023-06-10T03:23:00;-23696.25;;;16.75;86.10
29385;BME280;16367;48.736;9.218;2023-06-10T03:25:04;-23696.88;;;16.77;86.50
29385;BME280;16367;48.736;9.218;2023-06-10T03:27:08;-23693.56;;;16.66;87.03
29385;BME280;16367;48.736;9.218;2023-06-10T03:29:11;-23695.16;;;16.71;86.80
29385;BME280;16367;48.736;9.218;2023-06-10T03:31:13;-23692.31;;;16.62;87.62
29385;BME280;16367;48.736;9.218;2023-06-10T03:33:19;-23693.88;;;16.67;87.46
29385;BME280;16367;48.736;9.218;2023-06-10T03:35:22;-23695.94;;;16.74;86.92
29385;BME280;16367;48.736;9.218;2023-06-10T03:37:25;-23697.34;;;16.78;86.92
29385;BME280;16367;48.736;9.218;2023-06-10T03:39:28;-23698.75;;;16.83;87.70
29385;BME280;16367;48.736;9.218;2023-06-10T03:41:31;-23698.59;;;16.82;86.99
29385;BME280;16367;48.736;9.218;2023-06-10T03:43:34;-23692.00;;;16.61;88.35
29385;BME280;16367;48.736;9.218;2023-06-10T03:45:36;-23694.97;;;16.71;87.89
29385;BME280;16367;48.736;9.218;2023-06-10T03:47:39;-23693.09;;;16.65;88.29
29385;BME280;16367;48.736;9.218;2023-06-10T03:49:44;-23693.72;;;16.67;88.36
29385;BME280;16367;48.736;9.218;2023-06-10T03:51:47;-23690.72;;;16.57;88.66
29385;BME280;16367;48.736;9.218;2023-06-10T03:53:49;-23691.34;;;16.59;88.75
29385;BME280;16367;48.736;9.218;2023-06-10T03:55:52;-23690.72;;;16.57;89.29
29385;BME280;16367;48.736;9.218;2023-06-10T03:57:55;-23693.72;;;16.67;88.52
29385;BME280;16367;48.736;9.218;2023-06-10T03:59:58;-23692.00;;;16.61;89.37
29385;BME280;16367;48.736;9.218;2023-06-10T04:02:01;-23691.06;;;16.58;89.70
29385;BME280;16367;48.736;9.218;2023-06-10T04:04:04;-23697.03;;;16.77;88.84
29385;BME280;16367;48.736;9.218;2023-06-10T04:06:08;-23699.25;;;16.84;87.61
29385;BME280;16367;48.736;9.218;2023-06-10T04:08:11;-23694.81;;;16.70;89.33
29385;BME280;16367;48.736;9.218;2023-06-10T04:10:14;-23699.56;;;16.85;88.90
29385;BME280;16367;48.736;9.218;2023-06-10T04:12:16;-23713.72;;;17.31;86.36
29385;BME280;16367;48.736;9.218;2023-06-10T04:14:19;-23728.50;;;17.78;82.40
29385;BME280;16367;48.736;9.218;2023-06-10T04:16:22;-23740.63;;;18.17;80.62
29385;BME280;16367;48.736;9.218;2023-06-10T04:18:25;-23745.50;;;18.32;78.89
29385;BME280;16367;48.736;9.218;2023-06-10T04:20:28;-23754.63;;;18.62;77.40
29385;BME280;16367;48.736;9.218;2023-06-10T04:22:32;-23770.97;;;19.14;75.11
29385;BME280;16367;48.736;9.218;2023-06-10T04:24:34;-23776.94;;;19.33;74.38
29385;BME280;16367;48.736;9.218;2023-06-10T04:26:38;-23767.81;;;19.04;74.75
29385;BME280;16367;48.736;9.218;2023-06-10T04:28:42;-23776.78;;;19.32;73.04
29385;BME280;16367;48.736;9.218;2023-06-10T04:30:45;-23777.56;;;19.35;72.88
29385;BME280;16367;48.736;9.218;2023-06-10T04:32:48;-23781.34;;;19.47;73.16
29385;BME280;16367;48.736;9.218;2023-06-10T04:34:51;-23785.09;;;19.59;72.73
29385;BME280;16367;48.736;9.218;2023-06-10T04:36:53;-23792.94;;;19.84;72.48
29385;BME280;16367;48.736;9.218;2023-06-10T04:38:58;-23788.72;;;19.71;71.76
29385;BME280;16367;48.736;9.218;2023-06-10T04:41:00;-23796.88;;;19.97;70.06
29385;BME280;16367;48.736;9.218;2023-06-10T04:43:03;-23803.16;;;20.17;69.46
29385;BME280;16367;48.736;9.218;2023-06-10T04:45:07;-23803.00;;;20.17;70.18
29385;BME280;16367;48.736;9.218;2023-06-10T04:47:11;-23823.53;;;20.83;66.94
29385;BME280;16367;48.736;9.218;2023-06-10T04:49:13;-23829.66;;;21.02;65.07
29385;BME280;16367;48.736;9.218;2023-06-10T04:51:16;-23832.31;;;21.11;65.28
29385;BME280;16367;48.736;9.218;2023-06-10T04:53:19;-23817.75;;;20.64;67.23
29385;BME280;16367;48.736;9.218;2023-06-10T04:55:24;-23826.38;;;20.92;66.72
29385;BME280;16367;48.736;9.218;2023-06-10T04:57:27;-23823.69;;;20.83;66.95
29385;BME280;16367;48.736;9.218;2023-06-10T04:59:29;-23823.69;;;20.83;67.05
29385;BME280;16367;48.736;9.218;2023-06-10T05:01:32;-23840.63;;;21.37;65.40
29385;BME280;16367;48.736;9.218;2023-06-10T05:03:35;-23860.22;;;22.00;63.46
29385;BME280;16367;48.736;9.218;2023-06-10T05:05:38;-23846.75;;;21.57;65.65
29385;BME280;16367;48.736;9.218;2023-06-10T05:07:40;-23849.56;;;21.66;63.53
29385;BME280;16367;48.736;9.218;2023-06-10T05:09:43;-23840.47;;;21.37;64.38
29385;BME280;16367;48.736;9.218;2023-06-10T05:11:47;-23841.72;;;21.41;64.37
29385;BME280;16367;48.736;9.218;2023-06-10T05:13:50;-23835.47;;;21.21;65.68
29385;BME280;16367;48.736;9.218;2023-06-10T05:15:53;-23854.09;;;21.81;63.91
29385;BME280;16367;48.736;9.218;2023-06-10T05:17:56;-23884.47;;;22.78;60.11
29385;BME280;16367;48.736;9.218;2023-06-10T05:19:59;-23885.41;;;22.81;61.39
29385;BME280;16367;48.736;9.218;2023-06-10T05:22:03;-23892.31;;;23.04;60.05
29385;BME280;16367;48.736;9.218;2023-06-10T05:24:06;-23894.66;;;23.11;59.11
29385;BME280;16367;48.736;9.218;2023-06-10T05:26:09;-23916.06;;;23.80;56.74
29385;BME280;16367;48.736;9.218;2023-06-10T05:28:13;-23911.53;;;23.65;56.54
29385;BME280;16367;48.736;9.218;2023-06-10T05:30:16;-23924.22;;;24.06;55.06
29385;BME280;16367;48.736;9.218;2023-06-10T05:32:20;-23910.75;;;23.63;57.55
29385;BME280;16367;48.736;9.218;2023-06-10T05:34:23;-23902.94;;;23.38;58.47
29385;BME280;16367;48.736;9.218;2023-06-10T05:36:26;-23900.91;;;23.31;56.82
29385;BME280;16367;48.736;9.218;2023-06-10T05:38:29;-23911.69;;;23.66;56.23
29385;BME280;16367;48.736;9.218;2023-06-10T05:40:32;-23895.13;;;23.13;57.53
29385;BME280;16367;48.736;9.218;2023-06-10T05:42:34;-23903.25;;;23.39;57.14
29385;BME280;16367;48.736;9.218;2023-06-10T05:44:38;-23907.00;;;23.51;56.85
29385;BME280;16367;48.736;9.218;2023-06-10T05:46:41;-23894.97;;;23.12;59.21
29385;BME280;16367;48.736;9.218;2023-06-10T05:48:44;-23916.84;;;23.83;57.24
29385;BME280;16367;48.736;9.218;2023-06-10T05:50:47;-23907.31;;;23.52;58.43
29385;BME280;16367;48.736;9.218;2023-06-10T05:52:50;-23899.19;;;23.26;59.68
29385;BME280;16367;48.736;9.218;2023-06-10T05:54:55;-23902.31;;;23.36;59.26
29385;BME280;16367;48.736;9.218;2023-06-10T05:56:57;-23903.56;;;23.40;58.74
29385;BME280;16367;48.736;9.218;2023-06-10T05:59:00;-23916.53;;;23.82;57.61
29385;BME280;16367;48.736;9.218;2023-06-10T06:01:04;-23873.38;;;22.43;60.54
29385;BME280;16367;48.736;9.218;2023-06-10T06:03:07;-23884.78;;;22.79;61.19
29385;BME280;16367;48.736;9.218;2023-06-10T06:05:10;-23892.63;;;23.05;60.38
29385;BME280;16367;48.736;9.218;2023-06-10T06:07:14;-23896.69;;;23.18;59.65
29385;BME280;16367;48.736;9.218;2023-06-10T06:09:16;-23910.13;;;23.61;58.00
29385;BME280;16367;48.736;9.218;2023-06-10T06:11:19;-23905.59;;;23.46;58.73
29385;BME280;16367;48.736;9.218;2023-06-10T06:13:22;-23932.31;;;24.32;56.47
29385;BME280;16367;48.736;9.218;2023-06-10T06:15:25;-23933.41;;;24.36;55.82
29385;BME280;16367;48.736;9.218;2023-06-10T06:17:29;-23915.13;;;23.77;56.94
29385;BME280;16367;48.736;9.218;2023-06-10T06:19:32;-23929.97;;;24.25;55.33
29385;BME280;16367;48.736;9.218;2023-06-10T06:21:35;-23909.66;;;23.59;55.96
29385;BME280;16367;48.736;9.218;2023-06-10T06:23:37;-23915.75;;;23.79;56.50
29385;BME280;16367;48.736;9.218;2023-06-10T06:25:40;-23893.56;;;23.08;58.74
29385;BME280;16367;48.736;9.218;2023-06-10T06:27:43;-23919.34;;;23.91;56.70
29385;BME280;16367;48.736;9.218;2023-06-10T06:29:46;-23946.06;;;24.77;54.61
29385;BME280;16367;48.736;9.218;2023-06-10T06:31:49;-23913.88;;;23.73;57.27
29385;BME280;16367;48.736;9.218;2023-06-10T06:33:54;-23937.31;;;24.49;55.65
29385;BME280;16367;48.736;9.218;2023-06-10T06:35:56;-23920.59;;;23.95;57.03
29385;BME280;16367;48.736;9.218;2023-06-10T06:38:01;-23930.75;;;24.27;55.67
29385;BME280;16367;48.736;9.218;2023-06-10T06:40:06;-23925.59;;;24.11;57.24
29385;BME280;16367;48.736;9.218;2023-06-10T06:42:09;-23929.97;;;24.25;55.40
29385;BME280;16367;48.736;9.218;2023-06-10T06:44:12;-23907.47;;;23.52;58.55
29385;BME280;16367;48.736;9.218;2023-06-10T06:46:15;-23932.16;;;24.32;56.85
29385;BME280;16367;48.736;9.218;2023-06-10T06:48:18;-23890.28;;;22.97;58.33
29385;BME280;16367;48.736;9.218;2023-06-10T06:50:22;-23904.19;;;23.42;57.73
29385;BME280;16367;48.736;9.218;2023-06-10T06:52:25;-23910.44;;;23.62;58.31
29385;BME280;16367;48.736;9.218;2023-06-10T06:54:28;-23883.22;;;22.74;60.60
29385;BME280;16367;48.736;9.218;2023-06-10T06:56:31;-23930.13;;;24.25;56.26
29385;BME280;16367;48.736;9.218;2023-06-10T06:58:34;-23961.03;;;25.25;53.22
29385;BME280;16367;48.736;9.218;2023-06-10T07:00:36;-23947.00;;;24.80;53.83
29385;BME280;16367;48.736;9.218;2023-06-10T07:02:39;-23947.63;;;24.82;53.72
29385;BME280;16367;48.736;9.218;2023-06-10T07:04:42;-23961.38;;;25.26;52.87
29385;BME280;16367;48.736;9.218;2023-06-10T07:06:47;-23965.72;;;25.40;52.26
29385;BME280;16367;48.736;9.218;2023-06-10T07:08:49;-23921.84;;;23.99;55.97
29385;BME280;16367;48.736;9.218;2023-06-10T07:10:53;-23924.22;;;24.06;56.56
29385;BME280;16367;48.736;9.218;2023-06-10T07:12:55;-23934.19;;;24.38;57.39
29385;BME280;16367;48.736;9.218;2023-06-10T07:14:58;-23944.81;;;24.73;55.05
29385;BME280;16367;48.736;9.218;2023-06-10T07:17:01;-23970.72;;;25.56;54.00
29385;BME280;16367;48.736;9.218;2023-06-10T07:19:04;-23962.59;;;25.30;53.00
29385;BME280;16367;48.736;9.218;2023-06-10T07:21:07;-23958.25;;;25.16;54.48
29385;BME280;16367;48.736;9.218;2023-06-10T07:23:11;-23974.94;;;25.70;52.13
29385;BME280;16367;48.736;9.218;2023-06-10T07:25:14;-23991.63;;;26.24;51.42
29385;BME280;16367;48.736;9.218;2023-06-10T07:27:17;-23974.31;;;25.68;53.17
29385;BME280;16367;48.736;9.218;2023-06-10T07:29:19;-23992.88;;;26.28;51.08
29385;BME280;16367;48.736;9.218;2023-06-10T07:31:23;-23976.81;;;25.76;53.42
29385;BME280;16367;48.736;9.218;2023-06-10T07:33:26;-23955.75;;;25.08;53.41
29385;BME280;16367;48.736;9.218;2023-06-10T07:35:28;-24007.66;;;26.76;50.92
29385;BME280;16367;48.736;9.218;2023-06-10T07:37:31;-24005.47;;;26.69;50.89
29385;BME280;16367;48.736;9.218;2023-06-10T07:39:35;-23986.63;;;26.08;51.41
29385;BME280;16367;48.736;9.218;2023-06-10T07:41:38;-24034.44;;;27.62;48.38
29385;BME280;16367;48.736;9.218;2023-06-10T07:43:41;-24026.50;;;27.37;49.05
29385;BME280;16367;48.736;9.218;2023-06-10T07:45:44;-24003.00;;;26.60;50.15
29385;BME280;16367;48.736;9.218;2023-06-10T07:47:47;-24019.81;;;27.15;48.61
29385;BME280;16367;48.736;9.218;2023-06-10T07:49:50;-24060.09;;;28.45;45.43
29385;BME280;16367;48.736;9.218;2023-06-10T07:51:54;-24019.97;;;27.15;48.07
29385;BME280;16367;48.736;9.218;2023-06-10T07:53:56;-24003.63;;;26.63;50.21
29385;BME280;16367;48.736;9.218;2023-06-10T07:56:00;-24014.03;;;26.96;49.45
29385;BME280;16367;48.736;9.218;2023-06-10T07:58:03;-24023.69;;;27.27;48.18
29385;BME280;16367;48.736;9.218;2023-06-10T08:00:07;-23949.81;;;24.89;53.41
29385;BME280;16367;48.736;9.218;2023-06-10T08:02:10;-23945.44;;;24.75;54.33
29385;BME280;16367;48.736;9.218;2023-06-10T08:04:13;-23955.91;;;25.08;54.10
29385;BME280;16367;48.736;9.218;2023-06-10T08:06:16;-23996.59;;;26.40;51.15
29385;BME280;16367;48.736;9.218;2023-06-10T08:08:19;-24032.88;;;27.57;46.87
29385;BME280;16367;48.736;9.218;2023-06-10T08:10:22;-24046.72;;;28.02;46.91
29385;BME280;16367;48.736;9.218;2023-06-10T08:12:26;-23966.38;;;25.42;51.54
29385;BME280;16367;48.736;9.218;2023-06-10T08:14:29;-24016.22;;;27.03;49.30
29385;BME280;16367;48.736;9.218;2023-06-10T08:16:31;-24018.41;;;27.10;48.68
29385;BME280;16367;48.736;9.218;2023-06-10T08:18:34;-24021.69;;;27.21;48.32
29385;BME280;16367;48.736;9.218;2023-06-10T08:20:37;-23977.44;;;25.78;51.19
29385;BME280;16367;48.736;9.218;2023-06-10T08:22:40;-24011.88;;;26.89;49.03
29385;BME280;16367;48.736;9.218;2023-06-10T08:24:42;-23997.22;;;26.42;50.82
29385;BME280;16367;48.736;9.218;2023-06-10T08:26:49;-23986.94;;;26.09;49.77
29385;BME280;16367;48.736;9.218;2023-06-10T08:28:53;-24034.44;;;27.62;48.51
29385;BME280;16367;48.736;9.218;2023-06-10T08:30:57;-24038.63;;;27.76;47.69
29385;BME280;16367;48.736;9.218;2023-06-10T08:32:59;-24019.03;;;27.12;48.14
29385;BME280;16367;48.736;9.218;2023-06-10T08:35:03;-23993.19;;;26.29;50.81
29385;BME280;16367;48.736;9.218;2023-06-10T08:37:06;-23964.78;;;25.37;51.94
29385;BME280;16367;48.736;9.218;2023-06-10T08:39:09;-23935.91;;;24.44;55.86
29385;BME280;16367;48.736;9.218;2023-06-10T08:41:14;-23957.47;;;25.13;54.90
29385;BME280;16367;48.736;9.218;2023-06-10T08:43:24;-23985.38;;;26.04;52.80
29385;BME280;16367;48.736;9.218;2023-06-10T08:45:34;-24043.63;;;27.92;47.77
29385;BME280;16367;48.736;9.218;2023-06-10T08:47:39;-24061.34;;;28.49;45.78
29385;BME280;16367;48.736;9.218;2023-06-10T08:49:46;-24062.59;;;28.53;46.08
29385;BME280;16367;48.736;9.218;2023-06-10T08:51:50;-24049.84;;;28.12;47.74
29385;BME280;16367;48.736;9.218;2023-06-10T08:53:59;-24090.84;;;29.45;45.19
29385;BME280;16367;48.736;9.218;2023-06-10T08:56:04;-24086.19;;;29.30;46.11
29385;BME280;16367;48.736;9.218;2023-06-10T08:58:08;-24033.66;;;27.60;49.06
29385;BME280;16367;48.736;9.218;2023-06-10T09:00:13;-24023.38;;;27.26;48.54
29385;BME280;16367;48.736;9.218;2023-06-10T09:02:18;-24037.56;;;27.72;47.54
29385;BME280;16367;48.736;9.218;2023-06-10T09:04:23;-24033.97;;;27.61;48.97
29385;BME280;16367;48.736;9.218;2023-06-10T09:06:26;-24057.94;;;28.38;46.33
29385;BME280;16367;48.736;9.218;2023-06-10T09:08:30;-24009.84;;;26.83;49.12
29385;BME280;16367;48.736;9.218;2023-06-10T09:10:33;-24022.31;;;27.23;47.78
29385;BME280;16367;48.736;9.218;2023-06-10T09:12:36;-24017.47;;;27.07;49.38
29385;BME280;16367;48.736;9.218;2023-06-10T09:14:39;-24085.88;;;29.29;44.34
29385;BME280;16367;48.736;9.218;2023-06-10T09:16:42;-24029.63;;;27.47;46.59
29385;BME280;16367;48.736;9.218;2023-06-10T09:18:48;-24052.94;;;28.22;46.80
29385;BME280;16367;48.736;9.218;2023-06-10T09:20:56;-24040.19;;;27.81;47.63
29385;BME280;16367;48.736;9.218;2023-06-10T09:22:59;-24097.69;;;29.67;43.05
29385;BME280;16367;48.736;9.218;2023-06-10T09:25:03;-24091.31;;;29.46;42.52
29385;BME280;16367;48.736;9.218;2023-06-10T09:27:08;-24109.16;;;30.04;42.86
29385;BME280;16367;48.736;9.218;2023-06-10T09:29:11;-24124.97;;;30.56;40.42
29385;BME280;16367;48.736;9.218;2023-06-10T09:31:14;-24073.78;;;28.90;43.12
29385;BME280;16367;48.736;9.218;2023-06-10T09:33:26;-24027.75;;;27.41;46.86
29385;BME280;16367;48.736;9.218;2023-06-10T09:35:30;-24054.50;;;28.27;45.25
29385;BME280;16367;48.736;9.218;2023-06-10T09:37:33;-24057.63;;;28.37;45.30
29385;BME280;16367;48.736;9.218;2023-06-10T09:39:40;-24063.22;;;28.55;44.01
29385;BME280;16367;48.736;9.218;2023-06-10T09:41:44;-24066.31;;;28.65;45.25
29385;BME280;16367;48.736;9.218;2023-06-10T09:43:47;-24056.69;;;28.34;45.38
29385;BME280;16367;48.736;9.218;2023-06-10T09:45:51;-24012.81;;;26.92;47.13
29385;BME280;16367;48.736;9.218;2023-06-10T09:47:55;-24015.59;;;27.01;46.43
29385;BME280;16367;48.736;9.218;2023-06-10T09:49:58;-24058.84;;;28.41;43.73
29385;BME280;16367;48.736;9.218;2023-06-10T09:52:05;-24023.06;;;27.25;46.02
29385;BME280;16367;48.736;9.218;2023-06-10T09:54:08;-24046.72;;;28.02;45.10
29385;BME280;16367;48.736;9.218;2023-06-10T09:56:11;-24085.75;;;29.28;42.56
29385;BME280;16367;48.736;9.218;2023-06-10T09:58:14;-24095.50;;;29.60;41.55
29385;BME280;16367;48.736;9.218;2023-06-10T10:00:17;-24108.69;;;30.03;40.72
29385;BME280;16367;48.736;9.218;2023-06-10T10:02:20;-24078.75;;;29.06;41.97
29385;BME280;16367;48.736;9.218;2023-06-10T10:04:23;-24106.38;;;29.95;41.25
29385;BME280;16367;48.736;9.218;2023-06-10T10:06:27;-24123.75;;;30.52;40.75
29385;BME280;16367;48.736;9.218;2023-06-10T10:08:31;-24133.50;;;30.83;40.04
29385;BME280;16367;48.736;9.218;2023-06-10T10:10:34;-24069.72;;;28.76;43.35
29385;BME280;16367;48.736;9.218;2023-06-10T10:12:38;-24074.41;;;28.92;42.85
29385;BME280;16367;48.736;9.218;2023-06-10T10:14:46;-24031.50;;;27.53;46.17
29385;BME280;16367;48.736;9.218;2023-06-10T10:16:50;-24027.44;;;27.40;45.10
29385;BME280;16367;48.736;9.218;2023-06-10T10:18:55;-24021.53;;;27.20;45.78
29385;BME280;16367;48.736;9.218;2023-06-10T10:21:05;-24036.78;;;27.70;45.35
29385;BME280;16367;48.736;9.218;2023-06-10T10:23:11;-24028.53;;;27.43;45.43
29385;BME280;16367;48.736;9.218;2023-06-10T10:25:24;-24025.25;;;27.32;45.69
29385;BME280;16367;48.736;9.218;2023-06-10T10:27:33;-24014.66;;;26.98;46.89
29385;BME280;16367;48.736;9.218;2023-06-10T10:29:38;-23977.75;;;25.79;49.56
29385;BME280;16367;48.736;9.218;2023-06-10T10:31:42;-24002.22;;;26.58;48.00
29385;BME280;16367;48.736;9.218;2023-06-10T10:33:54;-24025.25;;;27.32;46.46
29385;BME280;16367;48.736;9.218;2023-06-10T10:35:58;-24014.38;;;26.97;46.62
29385;BME280;16367;48.736;9.218;2023-06-10T10:38:02;-23994.91;;;26.34;47.49
29385;BME280;16367;48.736;9.218;2023-06-10T10:40:06;-23999.72;;;26.50;47.33
29385;BME280;16367;48.736;9.218;2023-06-10T10:42:12;-24000.66;;;26.53;47.36
29385;BME280;16367;48.736;9.218;2023-06-10T10:44:16;-24001.28;;;26.55;46.79
29385;BME280;16367;48.736;9.218;2023-06-10T10:46:19;-24013.75;;;26.95;46.74